sensor_id;sensor_type;location;lat;lon;timestamp;pressure;altitude;pressure_sealevel;temperature;humidity
8049;BME280;20935;42.660;23.342;2023-07-22T00:00:43;94689.13;;;26.07;37.14
8049;BME280;20935;42.660;23.342;2023-07-22T00:03:28;94693.13;;;26.06;37.08
8049;BME280;20935;42.660;23.342;2023-07-22T00:06:14;94689.91;;;26.07;37.01
8049;BME280;20935;42.660;23.342;2023-07-22T00:08:59;94693.38;;;26.08;36.80
8049;BME280;20935;42.660;23.342;2023-07-22T00:11:49;94701.59;;;26.08;37.13
8049;BME280;20935;42.660;23.342;2023-07-22T00:14:38;94712.59;;;26.08;36.79
8049;BME280;20935;42.660;23.342;2023-07-22T00:17:23;94713.09;;;26.06;36.91
8049;BME280;20935;42.660;23.342;2023-07-22T00:20:09;94712.34;;;26.06;36.73
8049;BME280;20935;42.660;23.342;2023-07-22T00:22:55;94711.59;;;26.05;37.06
8049;BME280;20935;42.660;23.342;2023-07-22T00:25:40;94697.09;;;26.05;37.09
8049;BME280;20935;42.660;23.342;2023-07-22T00:28:27;94704.84;;;26.06;37.04
8049;BME280;20935;42.660;23.342;2023-07-22T00:31:12;94708.59;;;26.03;36.95
8049;BME280;20935;42.660;23.342;2023-07-22T00:33:58;94710.59;;;26.03;36.96
8049;BME280;20935;42.660;23.342;2023-07-22T00:36:43;94710.06;;;26.04;37.11
8049;BME280;20935;42.660;23.342;2023-07-22T00:39:30;94712.81;;;26.04;36.59
8049;BME280;20935;42.660;23.342;2023-07-22T00:42:15;94709.84;;;26.02;36.87
8049;BME280;20935;42.660;23.342;2023-07-22T00:45:02;94710.59;;;26.03;36.86
8049;BME280;20935;42.660;23.342;2023-07-22T00:47:48;94712.59;;;26.02;36.72
8049;BME280;20935;42.660;23.342;2023-07-22T00:50:34;94713.06;;;26.01;36.83
8049;BME280;20935;42.660;23.342;2023-07-22T00:53:20;94720.81;;;26.02;36.92
8049;BME280;20935;42.660;23.342;2023-07-22T00:56:05;94718.56;;;26.01;36.88
8049;BME280;20935;42.660;23.342;2023-07-22T00:58:51;94726.03;;;26.00;36.92
8049;BME280;20935;42.660;23.342;2023-07-22T01:01:38;94727.56;;;26.01;36.87
8049;BME280;20935;42.660;23.342;2023-07-22T01:04:24;94729.06;;;26.02;36.95
8049;BME280;20935;42.660;23.342;2023-07-22T01:07:10;94717.31;;;26.02;36.87
8049;BME280;20935;42.660;23.342;2023-07-22T01:09:56;94704.84;;;26.01;36.72
8049;BME280;20935;42.660;23.342;2023-07-22T01:12:44;94709.56;;;26.00;36.62
8049;BME280;20935;42.660;23.342;2023-07-22T01:15:30;94702.59;;;25.99;37.04
8049;BME280;20935;42.660;23.342;2023-07-22T01:18:17;94697.59;;;25.98;36.60
8049;BME280;20935;42.660;23.342;2023-07-22T01:21:03;94700.34;;;25.98;36.54
8049;BME280;20935;42.660;23.342;2023-07-22T01:23:50;94705.06;;;25.97;36.72
8049;BME280;20935;42.660;23.342;2023-07-22T01:26:35;94703.09;;;25.98;36.83
8049;BME280;20935;42.660;23.342;2023-07-22T01:29:21;94694.84;;;25.98;36.52
8049;BME280;20935;42.660;23.342;2023-07-22T01:32:06;94690.59;;;25.97;36.67
8049;BME280;20935;42.660;23.342;2023-07-22T01:34:53;94685.63;;;25.95;36.84
8049;BME280;20935;42.660;23.342;2023-07-22T01:37:38;94689.84;;;25.96;36.57
8049;BME280;20935;42.660;23.342;2023-07-22T01:40:26;94685.09;;;25.97;36.68
8049;BME280;20935;42.660;23.342;2023-07-22T01:43:12;94684.34;;;25.96;36.68
8049;BME280;20935;42.660;23.342;2023-07-22T01:45:57;94672.63;;;25.96;36.60
8049;BME280;20935;42.660;23.342;2023-07-22T01:48:43;94677.88;;;25.94;36.58
8049;BME280;20935;42.660;23.342;2023-07-22T01:51:28;94676.63;;;25.95;36.86
8049;BME280;20935;42.660;23.342;2023-07-22T01:54:14;94662.91;;;25.95;36.82
8049;BME280;20935;42.660;23.342;2023-07-22T01:57:01;94667.63;;;25.94;36.69
8049;BME280;20935;42.660;23.342;2023-07-22T01:59:46;94671.13;;;25.95;37.01
8049;BME280;20935;42.660;23.342;2023-07-22T02:02:32;94673.88;;;25.95;36.94
8049;BME280;20935;42.660;23.342;2023-07-22T02:05:18;94669.88;;;25.96;36.83
8049;BME280;20935;42.660;23.342;2023-07-22T02:08:04;94666.41;;;25.95;36.76
8049;BME280;20935;42.660;23.342;2023-07-22T02:10:49;94674.63;;;25.95;36.77
8049;BME280;20935;42.660;23.342;2023-07-22T02:13:35;94669.63;;;25.94;36.66
8049;BME280;20935;42.660;23.342;2023-07-22T02:16:21;94669.16;;;25.95;36.85
8049;BME280;20935;42.660;23.342;2023-07-22T02:19:06;94677.09;;;25.93;36.84
8049;BME280;20935;42.660;23.342;2023-07-22T02:21:52;94676.63;;;25.95;36.84
8049;BME280;20935;42.660;23.342;2023-07-22T02:24:37;94679.38;;;25.95;36.58
8049;BME280;20935;42.660;23.342;2023-07-22T02:27:23;94669.34;;;25.92;36.73
8049;BME280;20935;42.660;23.342;2023-07-22T02:30:10;94681.09;;;25.92;36.62
8049;BME280;20935;42.660;23.342;2023-07-22T02:32:55;94683.59;;;25.90;37.05
8049;BME280;20935;42.660;23.342;2023-07-22T02:35:41;94684.59;;;25.93;36.80
8049;BME280;20935;42.660;23.342;2023-07-22T02:38:27;94687.34;;;25.93;36.76
8049;BME280;20935;42.660;23.342;2023-07-22T02:41:12;94681.84;;;25.93;36.93
8049;BME280;20935;42.660;23.342;2023-07-22T02:43:57;94687.09;;;25.91;36.67
8049;BME280;20935;42.660;23.342;2023-07-22T02:46:44;94681.09;;;25.92;36.49
8049;BME280;20935;42.660;23.342;2023-07-22T02:49:29;94687.84;;;25.91;36.51
8049;BME280;20935;42.660;23.342;2023-07-22T02:52:15;94687.09;;;25.91;36.70
8049;BME280;20935;42.660;23.342;2023-07-22T02:55:05;94683.84;;;25.92;36.44
8049;BME280;20935;42.660;23.342;2023-07-22T02:57:51;94685.81;;;25.92;36.76
8049;BME280;20935;42.660;23.342;2023-07-22T03:00:37;94688.56;;;25.92;36.73
8049;BME280;20935;42.660;23.342;2023-07-22T03:03:24;94686.34;;;25.90;36.64
8049;BME280;20935;42.660;23.342;2023-07-22T03:06:09;94692.59;;;25.91;36.55
8049;BME280;20935;42.660;23.342;2023-07-22T03:08:54;94689.56;;;25.89;36.86
8049;BME280;20935;42.660;23.342;2023-07-22T03:11:41;94690.59;;;25.91;36.73
8049;BME280;20935;42.660;23.342;2023-07-22T03:14:27;94689.56;;;25.89;36.67
8049;BME280;20935;42.660;23.342;2023-07-22T03:17:12;94694.31;;;25.88;36.52
8049;BME280;20935;42.660;23.342;2023-07-22T03:20:02;94692.31;;;25.89;36.51
8049;BME280;20935;42.660;23.342;2023-07-22T03:22:49;94695.06;;;25.89;36.70
8049;BME280;20935;42.660;23.342;2023-07-22T03:25:35;94697.31;;;25.90;36.46
8049;BME280;20935;42.660;23.342;2023-07-22T03:28:20;94692.81;;;25.87;36.42
8049;BME280;20935;42.660;23.342;2023-07-22T03:31:06;94695.31;;;25.85;36.80
8049;BME280;20935;42.660;23.342;2023-07-22T03:33:52;94707.78;;;25.86;36.53
8049;BME280;20935;42.660;23.342;2023-07-22T03:36:39;94710.53;;;25.86;36.53
8049;BME280;20935;42.660;23.342;2023-07-22T03:39:24;94708.53;;;25.87;36.61
8049;BME280;20935;42.660;23.342;2023-07-22T03:42:10;94715.03;;;25.89;36.68
8049;BME280;20935;42.660;23.342;2023-07-22T03:44:55;94728.50;;;25.87;36.61
8049;BME280;20935;42.660;23.342;2023-07-22T03:47:40;94736.75;;;25.87;36.61
8049;BME280;20935;42.660;23.342;2023-07-22T03:50:26;94736.00;;;25.87;36.71
8049;BME280;20935;42.660;23.342;2023-07-22T03:53:13;94737.22;;;25.86;36.76
8049;BME280;20935;42.660;23.342;2023-07-22T03:55:59;94737.22;;;25.86;36.72
8049;BME280;20935;42.660;23.342;2023-07-22T03:58:44;94741.22;;;25.85;36.89
8049;BME280;20935;42.660;23.342;2023-07-22T04:01:30;94739.72;;;25.84;36.79
8049;BME280;20935;42.660;23.342;2023-07-22T04:04:15;94749.44;;;25.85;36.91
8049;BME280;20935;42.660;23.342;2023-07-22T04:07:01;94753.44;;;25.84;36.66
8049;BME280;20935;42.660;23.342;2023-07-22T04:09:48;94736.97;;;25.84;36.50
8049;BME280;20935;42.660;23.342;2023-07-22T04:12:33;94739.22;;;25.85;36.72
8049;BME280;20935;42.660;23.342;2023-07-22T04:15:19;94752.47;;;25.87;36.83
8049;BME280;20935;42.660;23.342;2023-07-22T04:18:04;94738.72;;;25.87;36.71
8049;BME280;20935;42.660;23.342;2023-07-22T04:20:55;94742.72;;;25.86;36.36
8049;BME280;20935;42.660;23.342;2023-07-22T04:23:41;94744.22;;;25.87;36.55
8049;BME280;20935;42.660;23.342;2023-07-22T04:26:28;94746.97;;;25.87;36.59
8049;BME280;20935;42.660;23.342;2023-07-22T04:29:13;94750.47;;;25.87;36.69
8049;BME280;20935;42.660;23.342;2023-07-22T04:32:00;94759.19;;;25.86;36.63
8049;BME280;20935;42.660;23.342;2023-07-22T04:34:46;94756.91;;;25.84;36.52
8049;BME280;20935;42.660;23.342;2023-07-22T04:37:32;94762.19;;;25.88;36.55
8049;BME280;20935;42.660;23.342;2023-07-22T04:40:18;94766.19;;;25.87;36.59
8049;BME280;20935;42.660;23.342;2023-07-22T04:43:05;94762.69;;;25.86;36.56
8049;BME280;20935;42.660;23.342;2023-07-22T04:45:50;94759.19;;;25.86;36.62
8049;BME280;20935;42.660;23.342;2023-07-22T04:48:36;94761.19;;;25.85;36.68
8049;BME280;20935;42.660;23.342;2023-07-22T04:51:22;94768.94;;;25.87;36.38
8049;BME280;20935;42.660;23.342;2023-07-22T04:54:07;94757.94;;;25.87;36.50
8049;BME280;20935;42.660;23.342;2023-07-22T04:56:52;94765.44;;;25.86;36.81
8049;BME280;20935;42.660;23.342;2023-07-22T04:59:39;94761.94;;;25.86;36.47
8049;BME280;20935;42.660;23.342;2023-07-22T05:02:25;94755.19;;;25.87;36.71
8049;BME280;20935;42.660;23.342;2023-07-22T05:05:10;94761.44;;;25.87;36.66
8049;BME280;20935;42.660;23.342;2023-07-22T05:07:55;94778.66;;;25.88;36.58
8049;BME280;20935;42.660;23.342;2023-07-22T05:10:41;94780.66;;;25.87;36.31
8049;BME280;20935;42.660;23.342;2023-07-22T05:13:27;94777.41;;;25.89;36.11
8049;BME280;20935;42.660;23.342;2023-07-22T05:16:13;94781.41;;;25.88;36.25
8049;BME280;20935;42.660;23.342;2023-07-22T05:18:59;94775.94;;;25.88;36.20
8049;BME280;20935;42.660;23.342;2023-07-22T05:21:45;94788.63;;;25.85;36.34
8049;BME280;20935;42.660;23.342;2023-07-22T05:24:30;94785.16;;;25.90;36.22
8049;BME280;20935;42.660;23.342;2023-07-22T05:27:15;94776.66;;;25.88;36.22
8049;BME280;20935;42.660;23.342;2023-07-22T05:30:01;94786.41;;;25.89;36.31
8049;BME280;20935;42.660;23.342;2023-07-22T05:32:47;94780.66;;;25.87;36.33
8049;BME280;20935;42.660;23.342;2023-07-22T05:35:36;94788.16;;;25.87;36.41
8049;BME280;20935;42.660;23.342;2023-07-22T05:38:22;94780.16;;;25.89;36.13
8049;BME280;20935;42.660;23.342;2023-07-22T05:41:07;94781.41;;;25.88;36.23
8049;BME280;20935;42.660;23.342;2023-07-22T05:43:53;94787.41;;;25.92;36.26
8049;BME280;20935;42.660;23.342;2023-07-22T05:46:38;94791.41;;;25.91;36.72
8049;BME280;20935;42.660;23.342;2023-07-22T05:49:25;94792.44;;;25.99;39.99
8049;BME280;20935;42.660;23.342;2023-07-22T05:52:11;94789.47;;;26.08;40.11
8049;BME280;20935;42.660;23.342;2023-07-22T05:54:56;94790.00;;;26.17;40.27
8049;BME280;20935;42.660;23.342;2023-07-22T05:57:41;94785.59;;;26.26;41.49
8049;BME280;20935;42.660;23.342;2023-07-22T06:00:27;94777.59;;;26.33;42.65
8049;BME280;20935;42.660;23.342;2023-07-22T06:03:12;94782.63;;;26.40;42.97
8049;BME280;20935;42.660;23.342;2023-07-22T06:05:59;94781.41;;;26.47;43.47
8049;BME280;20935;42.660;23.342;2023-07-22T06:08:44;94790.91;;;26.51;43.56
8049;BME280;20935;42.660;23.342;2023-07-22T06:11:30;94802.66;;;26.57;44.11
8049;BME280;20935;42.660;23.342;2023-07-22T06:14:15;94807.91;;;26.61;44.42
8049;BME280;20935;42.660;23.342;2023-07-22T06:17:01;94814.66;;;26.66;45.02
8049;BME280;20935;42.660;23.342;2023-07-22T06:19:46;94811.69;;;26.69;45.58
8049;BME280;20935;42.660;23.342;2023-07-22T06:22:33;94816.44;;;26.74;45.84
8049;BME280;20935;42.660;23.342;2023-07-22T06:25:19;94816.19;;;26.78;45.48
8049;BME280;20935;42.660;23.342;2023-07-22T06:28:04;94824.94;;;26.82;46.40
8049;BME280;20935;42.660;23.342;2023-07-22T06:30:49;94825.97;;;26.84;46.18
8049;BME280;20935;42.660;23.342;2023-07-22T06:33:35;94819.97;;;26.86;46.46
8049;BME280;20935;42.660;23.342;2023-07-22T06:36:20;94820.50;;;26.90;47.15
8049;BME280;20935;42.660;23.342;2023-07-22T06:39:07;94826.25;;;26.97;47.82
8049;BME280;20935;42.660;23.342;2023-07-22T06:41:53;94829.50;;;27.01;47.76
8049;BME280;20935;42.660;23.342;2023-07-22T06:44:39;94832.75;;;27.05;50.01
8049;BME280;20935;42.660;23.342;2023-07-22T06:47:24;94835.75;;;27.13;51.05
8049;BME280;20935;42.660;23.342;2023-07-22T06:50:10;94836.25;;;27.17;50.40
8049;BME280;20935;42.660;23.342;2023-07-22T06:52:55;94824.03;;;27.18;51.13
8049;BME280;20935;42.660;23.342;2023-07-22T06:55:49;94831.00;;;27.19;50.23
8049;BME280;20935;42.660;23.342;2023-07-22T06:58:35;94823.50;;;27.20;50.22
8049;BME280;20935;42.660;23.342;2023-07-22T07:01:20;94817.25;;;27.19;50.16
8049;BME280;20935;42.660;23.342;2023-07-22T07:04:06;94812.50;;;27.20;49.94
8049;BME280;20935;42.660;23.342;2023-07-22T07:06:51;94817.25;;;27.19;49.39
8049;BME280;20935;42.660;23.342;2023-07-22T07:09:36;94814.50;;;27.19;49.79
8049;BME280;20935;42.660;23.342;2023-07-22T07:12:23;94816.00;;;27.20;49.91
8049;BME280;20935;42.660;23.342;2023-07-22T07:15:10;94817.50;;;27.21;49.69
8049;BME280;20935;42.660;23.342;2023-07-22T07:17:56;94805.00;;;27.20;49.40
8049;BME280;20935;42.660;23.342;2023-07-22T07:20:41;94814.75;;;27.21;48.98
8049;BME280;20935;42.660;23.342;2023-07-22T07:23:27;94812.00;;;27.21;48.72
8049;BME280;20935;42.660;23.342;2023-07-22T07:26:12;94806.03;;;27.23;49.31
8049;BME280;20935;42.660;23.342;2023-07-22T07:28:59;94802.75;;;27.24;49.36
8049;BME280;20935;42.660;23.342;2023-07-22T07:31:44;94800.25;;;27.26;48.86
8049;BME280;20935;42.660;23.342;2023-07-22T07:34:30;94796.25;;;27.27;49.22
8049;BME280;20935;42.660;23.342;2023-07-22T07:37:16;94798.50;;;27.29;49.47
8049;BME280;20935;42.660;23.342;2023-07-22T07:40:02;94796.00;;;27.31;49.40
8049;BME280;20935;42.660;23.342;2023-07-22T07:42:48;94791.22;;;27.31;48.96
8049;BME280;20935;42.660;23.342;2023-07-22T07:45:38;94790.00;;;27.32;49.53
8049;BME280;20935;42.660;23.342;2023-07-22T07:48:24;94794.25;;;27.33;48.88
8049;BME280;20935;42.660;23.342;2023-07-22T07:51:10;94798.00;;;27.36;48.82
8049;BME280;20935;42.660;23.342;2023-07-22T07:53:57;94789.25;;;27.37;49.26
8049;BME280;20935;42.660;23.342;2023-07-22T07:56:43;94778.22;;;27.37;49.18
8049;BME280;20935;42.660;23.342;2023-07-22T07:59:29;94789.47;;;27.39;49.20
8049;BME280;20935;42.660;23.342;2023-07-22T08:02:15;94782.72;;;27.40;49.36
8049;BME280;20935;42.660;23.342;2023-07-22T08:05:01;94783.00;;;27.42;48.84
8049;BME280;20935;42.660;23.342;2023-07-22T08:07:46;94782.47;;;27.44;49.37
8049;BME280;20935;42.660;23.342;2023-07-22T08:10:31;94781.22;;;27.45;49.43
8049;BME280;20935;42.660;23.342;2023-07-22T08:13:17;94785.47;;;27.46;49.20
8049;BME280;20935;42.660;23.342;2023-07-22T08:16:04;94786.50;;;27.48;49.34
8049;BME280;20935;42.660;23.342;2023-07-22T08:18:51;94783.25;;;27.50;48.97
8049;BME280;20935;42.660;23.342;2023-07-22T08:21:36;94778.50;;;27.50;49.50
8049;BME280;20935;42.660;23.342;2023-07-22T08:24:22;94776.00;;;27.52;49.43
8049;BME280;20935;42.660;23.342;2023-07-22T08:27:07;94774.75;;;27.53;49.17
8049;BME280;20935;42.660;23.342;2023-07-22T08:29:52;94780.25;;;27.53;49.17
8049;BME280;20935;42.660;23.342;2023-07-22T08:32:38;94776.97;;;27.55;49.38
8049;BME280;20935;42.660;23.342;2023-07-22T08:35:24;94766.97;;;27.58;49.38
8049;BME280;20935;42.660;23.342;2023-07-22T08:38:10;94774.72;;;27.59;50.01
8049;BME280;20935;42.660;23.342;2023-07-22T08:40:55;94764.47;;;27.60;49.76
8049;BME280;20935;42.660;23.342;2023-07-22T08:43:41;94752.19;;;27.61;49.94
8049;BME280;20935;42.660;23.342;2023-07-22T08:46:29;94744.69;;;27.61;49.55
8049;BME280;20935;42.660;23.342;2023-07-22T08:49:15;94740.16;;;27.64;49.56
8049;BME280;20935;42.660;23.342;2023-07-22T08:52:03;94736.16;;;27.65;49.79
8049;BME280;20935;42.660;23.342;2023-07-22T08:54:49;94724.66;;;27.66;49.57
8049;BME280;20935;42.660;23.342;2023-07-22T08:57:35;94726.91;;;27.68;49.49
8049;BME280;20935;42.660;23.342;2023-07-22T09:00:21;94724.41;;;27.70;49.97
8049;BME280;20935;42.660;23.342;2023-07-22T09:03:07;94727.16;;;27.70;49.66
8049;BME280;20935;42.660;23.342;2023-07-22T09:05:53;94730.13;;;27.72;49.63
8049;BME280;20935;42.660;23.342;2023-07-22T09:08:42;94717.88;;;27.73;50.04
8049;BME280;20935;42.660;23.342;2023-07-22T09:11:28;94714.63;;;27.74;49.35
8049;BME280;20935;42.660;23.342;2023-07-22T09:14:13;94718.13;;;27.75;49.60
8049;BME280;20935;42.660;23.342;2023-07-22T09:16:58;94725.13;;;27.76;49.49
8049;BME280;20935;42.660;23.342;2023-07-22T09:19:44;94727.59;;;27.79;49.65
8049;BME280;20935;42.660;23.342;2023-07-22T09:22:31;94720.09;;;27.80;49.74
8049;BME280;20935;42.660;23.342;2023-07-22T09:25:19;94719.59;;;27.81;50.29
8049;BME280;20935;42.660;23.342;2023-07-22T09:28:04;94714.31;;;27.83;50.28
8049;BME280;20935;42.660;23.342;2023-07-22T09:31:01;94716.09;;;27.86;49.62
8049;BME280;20935;42.660;23.342;2023-07-22T09:33:47;94717.34;;;27.85;49.62
8049;BME280;20935;42.660;23.342;2023-07-22T09:36:33;94716.81;;;27.87;49.71
8049;BME280;20935;42.660;23.342;2023-07-22T09:39:30;94713.56;;;27.88;50.19
8049;BME280;20935;42.660;23.342;2023-07-22T09:42:25;94708.31;;;27.90;49.67
8049;BME280;20935;42.660;23.342;2023-07-22T09:45:10;94708.53;;;27.92;50.15
8049;BME280;20935;42.660;23.342;2023-07-22T09:47:57;94701.03;;;27.93;50.23
8049;BME280;20935;42.660;23.342;2023-07-22T09:50:43;94701.78;;;27.93;49.79
8049;BME280;20935;42.660;23.342;2023-07-22T09:53:28;94689.53;;;27.94;49.84
8049;BME280;20935;42.660;23.342;2023-07-22T09:56:14;94694.50;;;27.96;50.38
8049;BME280;20935;42.660;23.342;2023-07-22T09:59:04;94688.50;;;27.97;50.42
8049;BME280;20935;42.660;23.342;2023-07-22T10:01:50;94683.47;;;28.01;50.37
8049;BME280;20935;42.660;23.342;2023-07-22T10:04:37;94678.94;;;28.04;49.90
8049;BME280;20935;42.660;23.342;2023-07-22T10:07:24;94685.94;;;28.05;50.43
8049;BME280;20935;42.660;23.342;2023-07-22T10:10:10;94682.69;;;28.07;50.63
8049;BME280;20935;42.660;23.342;2023-07-22T10:12:56;94681.69;;;28.10;50.19
8049;BME280;20935;42.660;23.342;2023-07-22T10:15:45;94679.16;;;28.12;50.31
8049;BME280;20935;42.660;23.342;2023-07-22T10:18:32;94683.94;;;28.11;50.74
8049;BME280;20935;42.660;23.342;2023-07-22T10:21:17;94682.94;;;28.14;50.70
8049;BME280;20935;42.660;23.342;2023-07-22T10:24:04;94677.41;;;28.14;50.73
8049;BME280;20935;42.660;23.342;2023-07-22T10:26:51;94678.41;;;28.17;50.65
8049;BME280;20935;42.660;23.342;2023-07-22T10:29:38;94682.13;;;28.19;51.36
8049;BME280;20935;42.660;23.342;2023-07-22T10:32:25;94675.38;;;28.20;50.97
8049;BME280;20935;42.660;23.342;2023-07-22T10:35:21;94672.63;;;28.20;51.42
8049;BME280;20935;42.660;23.342;2023-07-22T10:38:09;94666.06;;;28.23;51.03
8049;BME280;20935;42.660;23.342;2023-07-22T10:40:56;94660.81;;;28.25;51.04
8049;BME280;20935;42.660;23.342;2023-07-22T10:43:41;94654.06;;;28.26;51.33
8049;BME280;20935;42.660;23.342;2023-07-22T10:46:33;94659.03;;;28.28;51.76
8049;BME280;20935;42.660;23.342;2023-07-22T10:49:20;94667.31;;;28.28;51.52
8049;BME280;20935;42.660;23.342;2023-07-22T10:52:06;94657.28;;;28.30;51.90
8049;BME280;20935;42.660;23.342;2023-07-22T10:54:51;94658.75;;;28.31;51.73
8049;BME280;20935;42.660;23.342;2023-07-22T10:57:47;94658.25;;;28.33;51.77
8049;BME280;20935;42.660;23.342;2023-07-22T11:00:33;94655.72;;;28.35;52.27
8049;BME280;20935;42.660;23.342;2023-07-22T11:03:19;94652.47;;;28.36;52.60
8049;BME280;20935;42.660;23.342;2023-07-22T11:06:07;94651.22;;;28.37;52.68
8049;BME280;20935;42.660;23.342;2023-07-22T11:08:53;94649.44;;;28.40;52.47
8049;BME280;20935;42.660;23.342;2023-07-22T11:11:40;94642.16;;;28.42;52.14
8049;BME280;20935;42.660;23.342;2023-07-22T11:14:27;94640.13;;;28.43;52.40
8049;BME280;20935;42.660;23.342;2023-07-22T11:17:13;94633.38;;;28.44;52.46
8049;BME280;20935;42.660;23.342;2023-07-22T11:19:59;94641.88;;;28.46;52.94
8049;BME280;20935;42.660;23.342;2023-07-22T11:22:47;94651.13;;;28.48;52.49
8049;BME280;20935;42.660;23.342;2023-07-22T11:25:33;94643.59;;;28.49;52.83
8049;BME280;20935;42.660;23.342;2023-07-22T11:28:19;94636.84;;;28.50;52.91
8049;BME280;20935;42.660;23.342;2023-07-22T11:31:04;94639.06;;;28.52;52.60
8049;BME280;20935;42.660;23.342;2023-07-22T11:33:50;94625.28;;;28.52;52.75
8049;BME280;20935;42.660;23.342;2023-07-22T11:36:35;94624.78;;;28.53;52.94
8049;BME280;20935;42.660;23.342;2023-07-22T11:39:24;94618.75;;;28.55;52.81
8049;BME280;20935;42.660;23.342;2023-07-22T11:42:09;94625.75;;;28.56;53.21
8049;BME280;20935;42.660;23.342;2023-07-22T11:44:54;94620.25;;;28.56;52.85
8049;BME280;20935;42.660;23.342;2023-07-22T11:47:40;94614.97;;;28.58;52.88
8049;BME280;20935;42.660;23.342;2023-07-22T11:50:31;94606.94;;;28.60;52.92
8049;BME280;20935;42.660;23.342;2023-07-22T11:53:17;94608.19;;;28.59;53.26
8049;BME280;20935;42.660;23.342;2023-07-22T11:56:04;94612.44;;;28.60;53.34
8049;BME280;20935;42.660;23.342;2023-07-22T11:58:51;94609.69;;;28.60;53.01
8049;BME280;20935;42.660;23.342;2023-07-22T12:01:36;94616.69;;;28.61;53.31
8049;BME280;20935;42.660;23.342;2023-07-22T12:04:23;94615.44;;;28.62;53.01
8049;BME280;20935;42.660;23.342;2023-07-22T12:07:21;94614.41;;;28.65;52.93
8049;BME280;20935;42.660;23.342;2023-07-22T12:10:08;94601.88;;;28.64;53.44
8049;BME280;20935;42.660;23.342;2023-07-22T12:13:00;94607.63;;;28.66;53.71
8049;BME280;20935;42.660;23.342;2023-07-22T12:15:59;94602.34;;;28.68;53.51
8049;BME280;20935;42.660;23.342;2023-07-22T12:18:45;94591.31;;;28.68;53.48
8049;BME280;20935;42.660;23.342;2023-07-22T12:21:31;94592.06;;;28.68;53.22
8049;BME280;20935;42.660;23.342;2023-07-22T12:24:16;94594.34;;;28.70;53.49
8049;BME280;20935;42.660;23.342;2023-07-22T12:27:02;94586.56;;;28.68;53.04
8049;BME280;20935;42.660;23.342;2023-07-22T12:29:49;94598.84;;;28.67;53.71
8049;BME280;20935;42.660;23.342;2023-07-22T12:32:34;94587.34;;;28.69;53.91
8049;BME280;20935;42.660;23.342;2023-07-22T12:35:20;94584.78;;;28.71;53.46
8049;BME280;20935;42.660;23.342;2023-07-22T12:38:05;94580.28;;;28.73;53.25
8049;BME280;20935;42.660;23.342;2023-07-22T12:40:51;94578.78;;;28.72;53.60
8049;BME280;20935;42.660;23.342;2023-07-22T12:43:36;94578.78;;;28.72;53.79
8049;BME280;20935;42.660;23.342;2023-07-22T12:46:23;94581.03;;;28.74;53.77
8049;BME280;20935;42.660;23.342;2023-07-22T12:49:08;94558.97;;;28.74;53.86
8049;BME280;20935;42.660;23.342;2023-07-22T12:51:54;94576.97;;;28.75;53.75
8049;BME280;20935;42.660;23.342;2023-07-22T12:54:39;94567.44;;;28.76;54.02
8049;BME280;20935;42.660;23.342;2023-07-22T12:57:25;94573.22;;;28.78;53.65
8049;BME280;20935;42.660;23.342;2023-07-22T13:00:12;94571.72;;;28.77;54.07
8049;BME280;20935;42.660;23.342;2023-07-22T13:02:58;94564.69;;;28.76;53.89
8049;BME280;20935;42.660;23.342;2023-07-22T13:05:44;94555.91;;;28.77;54.09
8049;BME280;20935;42.660;23.342;2023-07-22T13:08:29;94554.13;;;28.80;53.98
8049;BME280;20935;42.660;23.342;2023-07-22T13:11:15;94552.63;;;28.79;54.09
8049;BME280;20935;42.660;23.342;2023-07-22T13:14:01;94551.91;;;28.78;54.08
8049;BME280;20935;42.660;23.342;2023-07-22T13:16:46;94546.38;;;28.78;54.00
8049;BME280;20935;42.660;23.342;2023-07-22T13:19:33;94550.63;;;28.79;54.04
8049;BME280;20935;42.660;23.342;2023-07-22T13:22:18;94543.09;;;28.80;54.38
8049;BME280;20935;42.660;23.342;2023-07-22T13:25:05;94538.34;;;28.80;54.20
8049;BME280;20935;42.660;23.342;2023-07-22T13:27:50;94541.84;;;28.81;54.19
8049;BME280;20935;42.660;23.342;2023-07-22T13:30:36;94542.59;;;28.81;54.47
8049;BME280;20935;42.660;23.342;2023-07-22T13:33:21;94535.78;;;28.82;54.28
8049;BME280;20935;42.660;23.342;2023-07-22T13:36:08;94529.00;;;28.83;54.15
8049;BME280;20935;42.660;23.342;2023-07-22T13:38:53;94523.00;;;28.85;54.63
8049;BME280;20935;42.660;23.342;2023-07-22T13:41:39;94530.00;;;28.86;54.42
8049;BME280;20935;42.660;23.342;2023-07-22T13:44:24;94521.19;;;28.87;54.71
8049;BME280;20935;42.660;23.342;2023-07-22T13:47:10;94521.94;;;28.88;54.57
8049;BME280;20935;42.660;23.342;2023-07-22T13:49:55;94520.44;;;28.87;54.57
8049;BME280;20935;42.660;23.342;2023-07-22T13:52:42;94521.94;;;28.88;54.55
8049;BME280;20935;42.660;23.342;2023-07-22T13:55:28;94509.66;;;28.89;54.46
8049;BME280;20935;42.660;23.342;2023-07-22T13:58:13;94507.88;;;28.91;54.79
8049;BME280;20935;42.660;23.342;2023-07-22T14:00:59;94510.13;;;28.93;54.69
8049;BME280;20935;42.660;23.342;2023-07-22T14:03:44;94505.84;;;28.92;55.02
8049;BME280;20935;42.660;23.342;2023-07-22T14:06:29;94515.63;;;28.93;54.75
8049;BME280;20935;42.660;23.342;2023-07-22T14:09:17;94510.88;;;28.93;55.04
8049;BME280;20935;42.660;23.342;2023-07-22T14:12:03;94506.09;;;28.94;55.22
8049;BME280;20935;42.660;23.342;2023-07-22T14:14:49;94516.59;;;28.96;55.06
8049;BME280;20935;42.660;23.342;2023-07-22T14:17:34;94509.81;;;28.97;55.04
8049;BME280;20935;42.660;23.342;2023-07-22T14:20:21;94519.59;;;28.98;55.22
8049;BME280;20935;42.660;23.342;2023-07-22T14:23:07;94525.88;;;28.98;54.97
8049;BME280;20935;42.660;23.342;2023-07-22T14:25:54;94524.81;;;29.01;55.11
8049;BME280;20935;42.660;23.342;2023-07-22T14:28:39;94531.09;;;29.02;55.35
8049;BME280;20935;42.660;23.342;2023-07-22T14:31:24;94531.84;;;29.02;55.32
8049;BME280;20935;42.660;23.342;2023-07-22T14:34:10;94538.38;;;28.99;55.43
8049;BME280;20935;42.660;23.342;2023-07-22T14:36:55;94536.59;;;29.02;55.60
8049;BME280;20935;42.660;23.342;2023-07-22T14:39:40;94548.16;;;29.00;55.36